SPQU/AQP METAR and TAF weather

Enter ICAO airport designator
Station Type Date Time Source
SPQU METAR 2022/01/29 02:00 UTC NOAA

SPQU 290200Z VRB02KT 9999 BKN100 12/02 Q1026 RMK PP000


Station Type Date Time Source
SPQU Decoded METAR 2022/01/29 02:00 UTC NOAA

Arequipa, Peru (SPQU) 16-19S 071-33W 2539M
Jan 28, 2022 - 09:00 PM EST / 2022.01.29 0200 UTC
Wind: Variable at 2 MPH (2 KT):0
Visibility: greater than 7 mile(s):0
Sky conditions: mostly cloudy
Temperature: 53 F (12 C)
Dew Point: 35 F (2 C)
Relative Humidity: 50%
Pressure (altimeter): 30.30 in. Hg (1026 hPa)
ob: SPQU 290200Z VRB02KT 9999 BKN100 12/02 Q1026 RMK PP000
cycle: 2

Station Type Date Time Source
SPQU TAF 2022/01/28 18:37 UTC NOAA

TAF SPQU 281700Z 2818/2918 26010KT 9999 FEW060 SCT110 TX20/2818Z TN11/2910Z
BECMG 2900/2902 06005KT
BECMG 2913/2916 25010KT

Example: see airport list